YSB0648 ZBAA-ZSPD
Flight info
| Callsign | YSB0648 |
|---|---|
| Flight time | N/A |
| Altitude | 37100 |
| Route | ELKUR W40 YQG W142 DALIM A593 DPX A470 DALNU W166 ZJ W167 SASAN R343 EKIMU |
| Aircraft | A339/H-SDE2E3GHIJ3J4J5LM1ORWXY/LB1D1 |
Departure
| Time | 2026-05-05 03:08 |
|---|---|
| Airport | Beijing Capital International Airport (ZBAA) |
Arrival
| Time | N/A |
|---|---|
| Airport | Shanghai Pudong International Airport (ZSPD) |
| Time | Latitude | Longitude | Altitude | Speed | Heading |
|---|---|---|---|---|---|
| 2026-05-05 03:07 | 40.20571 | 116.57674 | 4069 ft | 277 kts | 352° |
| 2026-05-05 03:08 | 40.22499 | 116.57375 | 4764 ft | 281 kts | 351° |
| 2026-05-05 03:08 | 40.24429 | 116.56948 | 5404 ft | 283 kts | 338° |
| 2026-05-05 03:08 | 40.26161 | 116.55788 | 6055 ft | 278 kts | 317° |
| 2026-05-05 03:08 | 40.27604 | 116.54170 | 6741 ft | 277 kts | 312° |
| 2026-05-05 03:09 | 40.29025 | 116.52454 | 7418 ft | 280 kts | 312° |
| 2026-05-05 03:09 | 40.30439 | 116.50733 | 8086 ft | 281 kts | 309° |
| 2026-05-05 03:09 | 40.31463 | 116.48630 | 8766 ft | 272 kts | 284° |
| 2026-05-05 03:09 | 40.31719 | 116.46230 | 9442 ft | 268 kts | 267° |
| 2026-05-05 03:10 | 40.31699 | 116.43808 | 10080 ft | 271 kts | 267° |
| 2026-05-05 03:10 | 40.31677 | 116.41273 | 10456 ft | 285 kts | 268° |
| 2026-05-05 03:10 | 40.31664 | 116.38596 | 10726 ft | 301 kts | 268° |
| 2026-05-05 03:10 | 40.31658 | 116.35797 | 11127 ft | 313 kts | 268° |
| 2026-05-05 03:11 | 40.31657 | 116.32933 | 11756 ft | 317 kts | 268° |
| 2026-05-05 03:11 | 40.31656 | 116.30062 | 12402 ft | 321 kts | 268° |
| 2026-05-05 03:11 | 40.31636 | 116.27103 | 13021 ft | 325 kts | 264° |
| 2026-05-05 03:11 | 40.31078 | 116.24268 | 13564 ft | 329 kts | 243° |
| 2026-05-05 03:12 | 40.29724 | 116.21843 | 14209 ft | 333 kts | 224° |
| 2026-05-05 03:12 | 40.27803 | 116.20141 | 14795 ft | 339 kts | 209° |
| 2026-05-05 03:12 | 40.25697 | 116.18722 | 15385 ft | 344 kts | 209° |
| 2026-05-05 03:12 | 40.23571 | 116.17286 | 15983 ft | 348 kts | 209° |
| 2026-05-05 03:13 | 40.21404 | 116.15816 | 16566 ft | 353 kts | 209° |
| 2026-05-05 03:13 | 40.19230 | 116.14337 | 17144 ft | 357 kts | 210° |
| 2026-05-05 03:13 | 40.17005 | 116.12823 | 17737 ft | 361 kts | 210° |
| 2026-05-05 03:13 | 40.14764 | 116.11295 | 18310 ft | 366 kts | 210° |
| 2026-05-05 03:14 | 40.12495 | 116.09750 | 18903 ft | 370 kts | 210° |
| 2026-05-05 03:14 | 40.10209 | 116.08190 | 19502 ft | 373 kts | 211° |
| 2026-05-05 03:14 | 40.07917 | 116.06630 | 20077 ft | 376 kts | 211° |
| 2026-05-05 03:14 | 40.05590 | 116.05048 | 20644 ft | 379 kts | 210° |
| 2026-05-05 03:15 | 40.03070 | 116.03861 | 21140 ft | 390 kts | 192° |
| 2026-05-05 03:15 | 40.00336 | 116.03850 | 21659 ft | 401 kts | 173° |
| 2026-05-05 03:15 | 39.97648 | 116.04916 | 22180 ft | 408 kts | 162° |
| 2026-05-05 03:15 | 39.95013 | 116.06252 | 22663 ft | 413 kts | 161° |
| 2026-05-05 03:16 | 39.92329 | 116.07619 | 23110 ft | 417 kts | 161° |
| 2026-05-05 03:16 | 39.89622 | 116.08967 | 23672 ft | 418 kts | 162° |
| 2026-05-05 03:16 | 39.86899 | 116.10303 | 24413 ft | 414 kts | 162° |
| 2026-05-05 03:16 | 39.84212 | 116.11625 | 24935 ft | 416 kts | 161° |
| 2026-05-05 03:17 | 39.81549 | 116.13136 | 25356 ft | 420 kts | 157° |
| 2026-05-05 03:17 | 39.78941 | 116.14902 | 25773 ft | 424 kts | 152° |
| 2026-05-05 03:17 | 39.76401 | 116.16859 | 26188 ft | 427 kts | 151° |
| 2026-05-05 03:17 | 39.73854 | 116.18859 | 26593 ft | 430 kts | 150° |
| 2026-05-05 03:18 | 39.71291 | 116.20873 | 26993 ft | 432 kts | 150° |
| 2026-05-05 03:18 | 39.68726 | 116.22882 | 27378 ft | 435 kts | 151° |
| 2026-05-05 03:18 | 39.66130 | 116.24909 | 27749 ft | 438 kts | 151° |
| 2026-05-05 03:18 | 39.63491 | 116.26965 | 28111 ft | 440 kts | 151° |
| 2026-05-05 03:19 | 39.58226 | 116.31057 | 28830 ft | 445 kts | 151° |
| 2026-05-05 03:19 | 39.55535 | 116.33144 | 29200 ft | 447 kts | 151° |
| 2026-05-05 03:19 | 39.52889 | 116.35192 | 29797 ft | 443 kts | 152° |
| 2026-05-05 03:20 | 39.50191 | 116.37093 | 30360 ft | 439 kts | 155° |
| 2026-05-05 03:20 | 39.47430 | 116.38751 | 30720 ft | 439 kts | 159° |
| 2026-05-05 03:20 | 39.44586 | 116.40172 | 31007 ft | 440 kts | 163° |
| 2026-05-05 03:20 | 39.41679 | 116.41345 | 31280 ft | 441 kts | 167° |
| 2026-05-05 03:21 | 39.38683 | 116.42336 | 31567 ft | 443 kts | 168° |
| 2026-05-05 03:21 | 39.35672 | 116.43306 | 31864 ft | 445 kts | 169° |
| 2026-05-05 03:21 | 39.32674 | 116.44271 | 32164 ft | 447 kts | 168° |
| 2026-05-05 03:21 | 39.29660 | 116.45247 | 32452 ft | 449 kts | 168° |
| 2026-05-05 03:22 | 39.26634 | 116.46229 | 32743 ft | 450 kts | 168° |
| 2026-05-05 03:22 | 39.23609 | 116.47212 | 32861 ft | 451 kts | 168° |
| 2026-05-05 03:22 | 39.17505 | 116.49197 | 32862 ft | 451 kts | 168° |
| 2026-05-05 03:23 | 39.11455 | 116.51165 | 32859 ft | 451 kts | 168° |
| 2026-05-05 03:23 | 39.05369 | 116.53140 | 32857 ft | 451 kts | 168° |
| 2026-05-05 03:24 | 38.99282 | 116.55112 | 32858 ft | 452 kts | 168° |
| 2026-05-05 03:24 | 38.93169 | 116.57090 | 32861 ft | 451 kts | 168° |
| 2026-05-05 03:25 | 38.87110 | 116.59047 | 32861 ft | 451 kts | 168° |
| 2026-05-05 03:25 | 38.81002 | 116.61017 | 32865 ft | 451 kts | 168° |
| 2026-05-05 03:26 | 38.74890 | 116.62985 | 32873 ft | 451 kts | 168° |
| 2026-05-05 03:26 | 38.68782 | 116.64781 | 32881 ft | 451 kts | 172° |
| 2026-05-05 03:27 | 38.62598 | 116.65704 | 32882 ft | 448 kts | 180° |
| 2026-05-05 03:27 | 38.56379 | 116.65639 | 32881 ft | 446 kts | 187° |
| 2026-05-05 03:28 | 38.50174 | 116.64919 | 32879 ft | 443 kts | 188° |
| 2026-05-05 03:28 | 38.47153 | 116.64565 | 32876 ft | 430 kts | 188° |
| 2026-05-05 03:28 | 38.44198 | 116.64225 | 32883 ft | 423 kts | 188° |
| 2026-05-05 03:29 | 38.38340 | 116.63551 | 32878 ft | 425 kts | 188° |
| 2026-05-05 03:29 | 38.35366 | 116.63247 | 32627 ft | 425 kts | 186° |
| 2026-05-05 03:29 | 38.32401 | 116.63171 | 32359 ft | 424 kts | 181° |
| 2026-05-05 03:30 | 38.29485 | 116.63359 | 32097 ft | 425 kts | 177° |
| 2026-05-05 03:30 | 38.26502 | 116.63825 | 31830 ft | 427 kts | 173° |
| 2026-05-05 03:30 | 38.23586 | 116.64557 | 31567 ft | 428 kts | 168° |
| 2026-05-05 03:30 | 38.20718 | 116.65543 | 31303 ft | 429 kts | 165° |
| 2026-05-05 03:31 | 38.17853 | 116.66631 | 31037 ft | 430 kts | 165° |
| 2026-05-05 03:31 | 38.15008 | 116.67714 | 30893 ft | 430 kts | 165° |
| 2026-05-05 03:31 | 38.09257 | 116.69872 | 30887 ft | 430 kts | 165° |
| 2026-05-05 03:32 | 38.03516 | 116.72057 | 30890 ft | 430 kts | 164° |
| 2026-05-05 03:32 | 37.97756 | 116.74253 | 30895 ft | 431 kts | 164° |
| 2026-05-05 03:33 | 37.92020 | 116.76434 | 30893 ft | 430 kts | 164° |
| 2026-05-05 03:33 | 37.86286 | 116.78612 | 30890 ft | 429 kts | 164° |
| 2026-05-05 03:34 | 37.80578 | 116.80776 | 30890 ft | 430 kts | 164° |
| 2026-05-05 03:34 | 37.74860 | 116.82940 | 30892 ft | 430 kts | 164° |
| 2026-05-05 03:35 | 37.69124 | 116.85106 | 30899 ft | 431 kts | 164° |
| 2026-05-05 03:35 | 37.63378 | 116.87275 | 30901 ft | 431 kts | 164° |
| 2026-05-05 03:36 | 37.57626 | 116.89440 | 30906 ft | 431 kts | 164° |
| 2026-05-05 03:36 | 37.51900 | 116.91595 | 30904 ft | 430 kts | 164° |
| 2026-05-05 03:37 | 37.46172 | 116.93745 | 30906 ft | 430 kts | 163° |
| 2026-05-05 03:37 | 37.40397 | 116.95911 | 30912 ft | 431 kts | 163° |
| 2026-05-05 03:38 | 37.34663 | 116.98058 | 30916 ft | 429 kts | 163° |
| 2026-05-05 03:38 | 37.29001 | 117.00235 | 30921 ft | 430 kts | 160° |
| 2026-05-05 03:39 | 37.23380 | 117.02854 | 30927 ft | 433 kts | 159° |
| 2026-05-05 03:39 | 37.20543 | 117.04193 | 31051 ft | 440 kts | 159° |
| 2026-05-05 03:39 | 37.17671 | 117.05538 | 31242 ft | 445 kts | 159° |
| 2026-05-05 03:40 | 37.14765 | 117.06897 | 31526 ft | 447 kts | 159° |
| 2026-05-05 03:40 | 37.11817 | 117.08273 | 31859 ft | 449 kts | 159° |
| 2026-05-05 03:40 | 37.08928 | 117.09621 | 32451 ft | 438 kts | 159° |
| 2026-05-05 03:40 | 37.06146 | 117.10918 | 32856 ft | 422 kts | 159° |
| 2026-05-05 03:41 | 37.00699 | 117.13458 | 32951 ft | 417 kts | 159° |
| 2026-05-05 03:41 | 36.95261 | 117.15990 | 32948 ft | 413 kts | 159° |
| 2026-05-05 03:42 | 36.89964 | 117.18452 | 32957 ft | 401 kts | 159° |
| 2026-05-05 03:42 | 36.84640 | 117.20473 | 32950 ft | 400 kts | 168° |
| 2026-05-05 03:43 | 36.79157 | 117.21479 | 32964 ft | 400 kts | 177° |
| 2026-05-05 03:43 | 36.76356 | 117.21594 | 32734 ft | 400 kts | 181° |
| 2026-05-05 03:43 | 36.73600 | 117.21566 | 32466 ft | 400 kts | 181° |
| 2026-05-05 03:44 | 36.70798 | 117.21525 | 32198 ft | 400 kts | 181° |
| 2026-05-05 03:44 | 36.68027 | 117.21490 | 31934 ft | 400 kts | 181° |
| 2026-05-05 03:44 | 36.65243 | 117.21462 | 31665 ft | 401 kts | 181° |
| 2026-05-05 03:44 | 36.62439 | 117.21439 | 31396 ft | 402 kts | 181° |
| 2026-05-05 03:45 | 36.59642 | 117.21418 | 31137 ft | 403 kts | 180° |
| 2026-05-05 03:45 | 36.56832 | 117.21399 | 31009 ft | 401 kts | 181° |
| 2026-05-05 03:45 | 36.51246 | 117.21362 | 31012 ft | 402 kts | 180° |
| 2026-05-05 03:46 | 36.45635 | 117.21367 | 31017 ft | 402 kts | 178° |
| 2026-05-05 03:46 | 36.40090 | 117.22121 | 31016 ft | 402 kts | 168° |
| 2026-05-05 03:47 | 36.34677 | 117.23867 | 31016 ft | 402 kts | 162° |
| 2026-05-05 03:47 | 36.29333 | 117.25892 | 31009 ft | 402 kts | 162° |
| 2026-05-05 03:48 | 36.23987 | 117.27896 | 31002 ft | 402 kts | 162° |
| 2026-05-05 03:48 | 36.18625 | 117.29889 | 30998 ft | 402 kts | 162° |
| 2026-05-05 03:49 | 36.13301 | 117.31863 | 31012 ft | 402 kts | 162° |
| 2026-05-05 03:49 | 36.07919 | 117.33858 | 31009 ft | 402 kts | 162° |
| 2026-05-05 03:50 | 36.02570 | 117.35833 | 31013 ft | 402 kts | 162° |
| 2026-05-05 03:50 | 35.97224 | 117.37813 | 31011 ft | 402 kts | 161° |
| 2026-05-05 03:51 | 35.91886 | 117.39812 | 31017 ft | 401 kts | 162° |
| 2026-05-05 03:51 | 35.86514 | 117.41822 | 31018 ft | 401 kts | 162° |
| 2026-05-05 03:52 | 35.81191 | 117.43811 | 31023 ft | 401 kts | 162° |
| 2026-05-05 03:52 | 35.75824 | 117.45814 | 31027 ft | 402 kts | 162° |
| 2026-05-05 03:53 | 35.70513 | 117.47793 | 31026 ft | 401 kts | 162° |
| 2026-05-05 03:53 | 35.65157 | 117.49786 | 31039 ft | 401 kts | 162° |
| 2026-05-05 03:54 | 35.59866 | 117.51750 | 31026 ft | 386 kts | 162° |
| 2026-05-05 03:54 | 35.54770 | 117.53643 | 31032 ft | 384 kts | 162° |
| 2026-05-05 03:55 | 35.49650 | 117.55543 | 31038 ft | 383 kts | 162° |
| 2026-05-05 03:55 | 35.44555 | 117.57428 | 31041 ft | 383 kts | 162° |
| 2026-05-05 03:56 | 35.39454 | 117.59314 | 31040 ft | 383 kts | 162° |
| 2026-05-05 03:56 | 35.34347 | 117.61201 | 31040 ft | 383 kts | 162° |
| 2026-05-05 03:57 | 35.29229 | 117.63088 | 31046 ft | 384 kts | 162° |
| 2026-05-05 03:57 | 35.24128 | 117.64965 | 31048 ft | 383 kts | 162° |
| 2026-05-05 03:58 | 35.18998 | 117.66852 | 31048 ft | 384 kts | 162° |
| 2026-05-05 03:58 | 35.13911 | 117.68722 | 31049 ft | 383 kts | 163° |
| 2026-05-05 03:59 | 35.08807 | 117.70593 | 31043 ft | 383 kts | 163° |
| 2026-05-05 03:59 | 35.03704 | 117.72463 | 31043 ft | 383 kts | 163° |
| 2026-05-05 04:00 | 34.98602 | 117.74329 | 31042 ft | 383 kts | 163° |
| 2026-05-05 04:00 | 34.93489 | 117.76200 | 31040 ft | 383 kts | 163° |
| 2026-05-05 04:01 | 34.88401 | 117.78062 | 31037 ft | 383 kts | 163° |
| 2026-05-05 04:01 | 34.83304 | 117.79926 | 31033 ft | 382 kts | 163° |
| 2026-05-05 04:02 | 34.78212 | 117.81776 | 31036 ft | 382 kts | 163° |
| 2026-05-05 04:02 | 34.73111 | 117.83607 | 31033 ft | 382 kts | 163° |
| 2026-05-05 04:03 | 34.68011 | 117.85440 | 31034 ft | 382 kts | 163° |
| 2026-05-05 04:03 | 34.62920 | 117.87268 | 31037 ft | 382 kts | 163° |
| 2026-05-05 04:04 | 34.57827 | 117.89096 | 31038 ft | 382 kts | 163° |
| 2026-05-05 04:04 | 34.52712 | 117.90929 | 31037 ft | 382 kts | 164° |
| 2026-05-05 04:05 | 34.47614 | 117.92754 | 31037 ft | 382 kts | 164° |
| 2026-05-05 04:05 | 34.42537 | 117.94570 | 31040 ft | 382 kts | 164° |
| 2026-05-05 04:06 | 34.37423 | 117.96397 | 31041 ft | 381 kts | 164° |
| 2026-05-05 04:06 | 34.32355 | 117.98208 | 31042 ft | 381 kts | 164° |
| 2026-05-05 04:07 | 34.27279 | 118.00015 | 31044 ft | 381 kts | 164° |
| 2026-05-05 04:07 | 34.22181 | 118.01868 | 31043 ft | 380 kts | 164° |
| 2026-05-05 04:08 | 34.17120 | 118.03717 | 31049 ft | 380 kts | 164° |
| 2026-05-05 04:08 | 34.12067 | 118.05557 | 31048 ft | 380 kts | 164° |
| 2026-05-05 04:09 | 34.06994 | 118.07405 | 31049 ft | 380 kts | 164° |
| 2026-05-05 04:09 | 34.01932 | 118.09242 | 31052 ft | 379 kts | 164° |
| 2026-05-05 04:10 | 33.96888 | 118.11076 | 31052 ft | 379 kts | 164° |
| 2026-05-05 04:10 | 33.91849 | 118.12912 | 31051 ft | 379 kts | 164° |
| 2026-05-05 04:11 | 33.86777 | 118.14757 | 31051 ft | 379 kts | 164° |
| 2026-05-05 04:11 | 33.81837 | 118.16911 | 31051 ft | 380 kts | 156° |
| 2026-05-05 04:12 | 33.77243 | 118.20025 | 31055 ft | 381 kts | 146° |
| 2026-05-05 04:12 | 33.72893 | 118.23659 | 31056 ft | 380 kts | 145° |
| 2026-05-05 04:13 | 33.68558 | 118.27292 | 31052 ft | 381 kts | 146° |
| 2026-05-05 04:13 | 33.64179 | 118.30935 | 31053 ft | 381 kts | 146° |
| 2026-05-05 04:14 | 33.59843 | 118.34534 | 31053 ft | 381 kts | 146° |
| 2026-05-05 04:14 | 33.55495 | 118.38136 | 31052 ft | 381 kts | 146° |
| 2026-05-05 04:15 | 33.51123 | 118.41753 | 31050 ft | 380 kts | 146° |
| 2026-05-05 04:15 | 33.46785 | 118.45338 | 31048 ft | 381 kts | 146° |
| 2026-05-05 04:16 | 33.42436 | 118.48927 | 31052 ft | 381 kts | 146° |
| 2026-05-05 04:16 | 33.38076 | 118.52522 | 31047 ft | 380 kts | 146° |
| 2026-05-05 04:17 | 33.33698 | 118.56129 | 31052 ft | 380 kts | 147° |
| 2026-05-05 04:17 | 33.29358 | 118.59699 | 31056 ft | 380 kts | 146° |
| 2026-05-05 04:18 | 33.24994 | 118.63283 | 31056 ft | 380 kts | 147° |
| 2026-05-05 04:18 | 33.20653 | 118.66844 | 31054 ft | 380 kts | 147° |
| 2026-05-05 04:19 | 33.16312 | 118.70441 | 31060 ft | 379 kts | 147° |
| 2026-05-05 04:19 | 33.11988 | 118.74033 | 31064 ft | 379 kts | 147° |
| 2026-05-05 04:20 | 33.07662 | 118.77621 | 31061 ft | 379 kts | 147° |
| 2026-05-05 04:20 | 33.03344 | 118.81199 | 31061 ft | 380 kts | 147° |
| 2026-05-05 04:21 | 32.98997 | 118.84795 | 31065 ft | 379 kts | 147° |
| 2026-05-05 04:21 | 32.94680 | 118.88363 | 31063 ft | 379 kts | 147° |
| 2026-05-05 04:22 | 32.90331 | 118.91957 | 31068 ft | 379 kts | 147° |
| 2026-05-05 04:22 | 32.86026 | 118.95507 | 31070 ft | 378 kts | 148° |
| 2026-05-05 04:23 | 32.81362 | 118.98059 | 31058 ft | 367 kts | 181° |
| 2026-05-05 04:23 | 32.78841 | 118.97769 | 31068 ft | 358 kts | 201° |
| 2026-05-05 04:23 | 32.76637 | 118.96565 | 31071 ft | 351 kts | 220° |
| 2026-05-05 04:24 | 32.74881 | 118.94610 | 31067 ft | 344 kts | 237° |
| 2026-05-05 04:24 | 32.73742 | 118.92136 | 31072 ft | 338 kts | 255° |
| 2026-05-05 04:24 | 32.73309 | 118.89428 | 31068 ft | 335 kts | 271° |
| 2026-05-05 04:25 | 32.74540 | 118.84216 | 31071 ft | 334 kts | 304° |
| 2026-05-05 04:25 | 32.76088 | 118.82176 | 31070 ft | 337 kts | 320° |
| 2026-05-05 04:25 | 32.78126 | 118.80766 | 31069 ft | 342 kts | 338° |
| 2026-05-05 04:25 | 32.80475 | 118.80170 | 31067 ft | 349 kts | 355° |
| 2026-05-05 04:26 | 32.82887 | 118.80492 | 31066 ft | 356 kts | 14° |
| 2026-05-05 04:26 | 32.85152 | 118.81758 | 31068 ft | 365 kts | 33° |
| 2026-05-05 04:26 | 32.86980 | 118.83899 | 31071 ft | 374 kts | 53° |
| 2026-05-05 04:26 | 32.88105 | 118.86674 | 31068 ft | 380 kts | 74° |
| 2026-05-05 04:27 | 32.88366 | 118.89813 | 31070 ft | 383 kts | 96° |
| 2026-05-05 04:27 | 32.87713 | 118.92824 | 31066 ft | 384 kts | 117° |
| 2026-05-05 04:27 | 32.86201 | 118.95428 | 31067 ft | 380 kts | 139° |
| 2026-05-05 04:28 | 32.81942 | 118.99068 | 31070 ft | 378 kts | 148° |
| 2026-05-05 04:28 | 32.77580 | 119.02564 | 31059 ft | 378 kts | 148° |
| 2026-05-05 04:29 | 32.73251 | 119.06110 | 31058 ft | 378 kts | 148° |
| 2026-05-05 04:29 | 32.68940 | 119.09668 | 31061 ft | 378 kts | 147° |
| 2026-05-05 04:30 | 32.64616 | 119.13245 | 31058 ft | 378 kts | 148° |
| 2026-05-05 04:30 | 32.60303 | 119.16808 | 31069 ft | 378 kts | 148° |
| 2026-05-05 04:31 | 32.55988 | 119.20370 | 31066 ft | 378 kts | 148° |
| 2026-05-05 04:31 | 32.51698 | 119.23908 | 31070 ft | 378 kts | 148° |
| 2026-05-05 04:32 | 32.47391 | 119.27454 | 31071 ft | 378 kts | 148° |
| 2026-05-05 04:32 | 32.43071 | 119.31010 | 31069 ft | 378 kts | 148° |
| 2026-05-05 04:33 | 32.38747 | 119.34563 | 31072 ft | 377 kts | 148° |
| 2026-05-05 04:33 | 32.34462 | 119.38079 | 31077 ft | 377 kts | 148° |
| 2026-05-05 04:34 | 32.30060 | 119.41681 | 30621 ft | 397 kts | 148° |
| 2026-05-05 04:34 | 32.27782 | 119.43542 | 30098 ft | 403 kts | 147° |
| 2026-05-05 04:34 | 32.25455 | 119.45447 | 29613 ft | 405 kts | 147° |
| 2026-05-05 04:34 | 32.23148 | 119.47336 | 29158 ft | 406 kts | 147° |
| 2026-05-05 04:35 | 32.20831 | 119.49232 | 28661 ft | 407 kts | 147° |
| 2026-05-05 04:35 | 32.18511 | 119.51129 | 28161 ft | 409 kts | 147° |
| 2026-05-05 04:35 | 32.16140 | 119.53065 | 27682 ft | 410 kts | 147° |
| 2026-05-05 04:35 | 32.13836 | 119.54947 | 27332 ft | 407 kts | 147° |
| 2026-05-05 04:36 | 32.11522 | 119.56838 | 26998 ft | 404 kts | 147° |
| 2026-05-05 04:36 | 32.09202 | 119.58730 | 26672 ft | 401 kts | 147° |
| 2026-05-05 04:36 | 32.06923 | 119.60589 | 26349 ft | 398 kts | 147° |
| 2026-05-05 04:36 | 32.04667 | 119.62427 | 26039 ft | 395 kts | 147° |
| 2026-05-05 04:37 | 32.02413 | 119.64264 | 25719 ft | 392 kts | 146° |
| 2026-05-05 04:37 | 32.00193 | 119.66070 | 25402 ft | 389 kts | 147° |
| 2026-05-05 04:37 | 31.97945 | 119.67897 | 25076 ft | 386 kts | 147° |
| 2026-05-05 04:37 | 31.95758 | 119.69739 | 24748 ft | 384 kts | 142° |
| 2026-05-05 04:38 | 31.93805 | 119.71877 | 24399 ft | 384 kts | 133° |
| 2026-05-05 04:38 | 31.92167 | 119.74294 | 24096 ft | 382 kts | 126° |
| 2026-05-05 04:38 | 31.90656 | 119.76898 | 23839 ft | 387 kts | 124° |
| 2026-05-05 04:38 | 31.89168 | 119.79531 | 23582 ft | 387 kts | 124° |
| 2026-05-05 04:39 | 31.87667 | 119.82182 | 23324 ft | 385 kts | 124° |
| 2026-05-05 04:39 | 31.86185 | 119.84786 | 23064 ft | 383 kts | 124° |
| 2026-05-05 04:39 | 31.84701 | 119.87380 | 22799 ft | 381 kts | 124° |
| 2026-05-05 04:39 | 31.83227 | 119.89947 | 22539 ft | 380 kts | 124° |
| 2026-05-05 04:40 | 31.81953 | 119.92162 | 22313 ft | 378 kts | 124° |